createdAt,value
2023-05-11T00:01:54.744Z,4.67
2023-05-11T00:04:20.908Z,4.60
2023-05-11T00:06:47.072Z,5.00
2023-05-11T00:09:13.122Z,4.87
2023-05-11T00:11:39.237Z,5.10
2023-05-11T00:14:05.316Z,4.80
2023-05-11T00:16:31.370Z,4.60
2023-05-11T00:18:57.781Z,5.23
2023-05-11T00:21:23.993Z,4.70
2023-05-11T00:23:50.326Z,5.77
2023-05-11T00:26:16.374Z,6.07
2023-05-11T00:28:42.541Z,5.57
2023-05-11T00:31:08.616Z,4.57
2023-05-11T00:33:34.959Z,5.07
2023-05-11T00:36:02.939Z,5.50
2023-05-11T00:38:29.007Z,5.63
2023-05-11T00:40:56.084Z,5.50
2023-05-11T00:43:22.132Z,5.50
2023-05-11T00:45:49.084Z,5.77
2023-05-11T00:48:15.561Z,5.57
2023-05-11T00:50:41.734Z,5.70
2023-05-11T00:53:08.080Z,5.30
2023-05-11T00:55:34.184Z,5.00
2023-05-11T00:58:00.289Z,5.37
2023-05-11T01:00:26.432Z,5.43
2023-05-11T01:02:53.084Z,4.60
2023-05-11T01:05:19.764Z,5.37
2023-05-11T01:07:58.102Z,5.77
2023-05-11T01:10:52.430Z,6.10
2023-05-11T01:13:26.921Z,7.23
2023-05-11T01:15:56.514Z,7.13
2023-05-11T01:18:27.479Z,6.93
2023-05-11T01:20:57.092Z,8.13
2023-05-11T01:23:52.381Z,8.10
2023-05-11T01:26:27.308Z,7.10
2023-05-11T01:29:12.979Z,7.30
2023-05-11T01:31:46.195Z,8.20
2023-05-11T01:34:17.413Z,8.30
2023-05-11T01:36:49.079Z,8.37
2023-05-11T01:39:16.655Z,7.80
2023-05-11T01:41:45.212Z,7.00
2023-05-11T01:44:11.733Z,8.33
2023-05-11T01:46:39.279Z,6.70
2023-05-11T01:49:08.963Z,6.70
2023-05-11T01:51:39.465Z,7.10
2023-05-11T01:54:07.389Z,8.80
2023-05-11T01:56:35.026Z,7.70
2023-05-11T01:59:01.740Z,7.70
2023-05-11T02:01:28.522Z,8.07
2023-05-11T02:03:54.951Z,7.90
2023-05-11T02:06:23.341Z,7.40
2023-05-11T02:08:50.324Z,8.03
2023-05-11T02:11:16.557Z,7.60
2023-05-11T02:13:44.607Z,7.97
2023-05-11T02:16:11.670Z,7.70
2023-05-11T02:18:40.269Z,8.00
2023-05-11T02:21:08.705Z,8.07
2023-05-11T02:23:36.263Z,7.40
2023-05-11T02:26:03.568Z,9.77
2023-05-11T02:28:29.816Z,8.40
2023-05-11T02:31:00.155Z,9.27
2023-05-11T02:33:30.560Z,8.40
2023-05-11T02:35:57.719Z,9.87
2023-05-11T02:38:30.025Z,9.60
2023-05-11T02:40:58.352Z,9.93
2023-05-11T02:43:24.977Z,9.40
2023-05-11T02:45:53.511Z,9.57
2023-05-11T02:48:22.414Z,10.10
2023-05-11T02:50:50.655Z,9.43
2023-05-11T02:53:17.878Z,9.57
2023-05-11T02:55:44.022Z,9.93
2023-05-11T02:58:10.527Z,9.73
2023-05-11T03:00:38.423Z,11.57
2023-05-11T03:03:04.876Z,9.80
2023-05-11T03:05:31.050Z,10.80
2023-05-11T03:07:58.618Z,10.07
2023-05-11T03:10:26.084Z,10.60
2023-05-11T03:12:52.291Z,10.73
2023-05-11T03:15:19.530Z,11.37
2023-05-11T03:17:46.194Z,11.93
2023-05-11T03:20:13.138Z,11.03
2023-05-11T03:22:39.586Z,10.60
2023-05-11T03:25:07.081Z,11.07
2023-05-11T03:27:34.182Z,10.43
2023-05-11T03:30:02.750Z,12.43
2023-05-11T03:32:29.004Z,10.10
2023-05-11T03:34:55.335Z,9.90
2023-05-11T03:37:21.729Z,7.63
2023-05-11T03:39:51.979Z,6.97
2023-05-11T03:42:19.610Z,6.93
2023-05-11T03:44:46.824Z,7.77
2023-05-11T03:47:14.229Z,9.43
2023-05-11T03:49:40.602Z,8.97
2023-05-11T03:52:06.925Z,9.77
2023-05-11T03:54:33.273Z,9.70
2023-05-11T03:56:59.339Z,9.20
2023-05-11T03:59:25.709Z,9.57
2023-05-11T04:01:53.209Z,10.07
2023-05-11T04:04:20.581Z,10.50
2023-05-11T04:06:46.652Z,9.90
2023-05-11T04:09:12.751Z,8.97
2023-05-11T04:11:38.926Z,9.50
2023-05-11T04:14:05.146Z,9.90
2023-05-11T04:16:31.248Z,8.80
2023-05-11T04:18:57.520Z,9.60
2023-05-11T04:21:23.608Z,10.33
2023-05-11T04:23:49.755Z,11.63
2023-05-11T04:26:15.814Z,13.27
2023-05-11T04:28:41.870Z,13.00
2023-05-11T04:31:07.954Z,13.63
2023-05-11T04:33:34.030Z,13.40
2023-05-11T04:36:00.715Z,13.10
2023-05-11T04:38:26.797Z,13.00
2023-05-11T04:40:52.929Z,13.23
2023-05-11T04:43:19.690Z,13.43
2023-05-11T04:45:51.886Z,11.80
2023-05-11T04:48:20.562Z,9.33
2023-05-11T04:50:47.372Z,11.43
2023-05-11T04:53:13.535Z,10.50
2023-05-11T04:55:39.753Z,9.70
2023-05-11T04:58:05.876Z,9.60
2023-05-11T05:00:32.001Z,13.83
2023-05-11T05:02:58.112Z,13.30
2023-05-11T05:05:24.214Z,10.60
2023-05-11T05:07:50.311Z,11.03
2023-05-11T05:10:16.727Z,9.40
2023-05-11T05:12:43.018Z,10.00
2023-05-11T05:15:10.674Z,11.97
2023-05-11T05:17:36.825Z,14.53
2023-05-11T05:20:03.824Z,14.17
2023-05-11T05:22:30.589Z,14.37
2023-05-11T05:24:56.962Z,14.20
2023-05-11T05:27:23.045Z,13.10
2023-05-11T05:29:49.156Z,13.67
2023-05-11T05:32:15.210Z,15.20
2023-05-11T05:34:41.384Z,13.97
2023-05-11T05:37:07.531Z,13.20
2023-05-11T05:39:33.619Z,12.03
2023-05-11T05:41:59.807Z,13.63
2023-05-11T05:44:25.953Z,13.47
2023-05-11T05:46:52.021Z,14.03
2023-05-11T05:49:18.116Z,16.23
2023-05-11T05:51:44.228Z,14.70
2023-05-11T05:54:11.174Z,12.67
2023-05-11T05:56:37.308Z,12.97
2023-05-11T05:59:03.468Z,13.63
2023-05-11T06:01:29.529Z,13.03
2023-05-11T06:03:55.801Z,13.80
2023-05-11T06:06:22.124Z,12.47
2023-05-11T06:08:48.202Z,12.90
2023-05-11T06:11:15.348Z,12.60
2023-05-11T06:13:41.437Z,13.33
2023-05-11T06:16:07.535Z,12.60
2023-05-11T06:18:33.767Z,12.50
2023-05-11T06:20:59.863Z,11.10
2023-05-11T06:23:26.010Z,10.90
2023-05-11T06:25:52.078Z,10.00
2023-05-11T06:28:18.150Z,9.37
2023-05-11T06:30:44.912Z,9.90
2023-05-11T06:33:10.970Z,10.47
2023-05-11T06:35:37.040Z,8.90
2023-05-11T06:38:03.144Z,9.10
2023-05-11T06:40:29.288Z,9.77
2023-05-11T06:42:55.628Z,8.63
2023-05-11T06:45:21.845Z,10.07
2023-05-11T06:47:48.279Z,10.30
2023-05-11T06:50:14.498Z,11.43
2023-05-11T06:52:40.580Z,9.73
2023-05-11T06:55:07.051Z,10.30
2023-05-11T06:57:33.129Z,8.87
2023-05-11T06:59:59.216Z,9.43
2023-05-11T07:02:25.327Z,9.37
2023-05-11T07:04:51.552Z,8.73
2023-05-11T07:07:17.682Z,7.70
2023-05-11T07:09:43.736Z,9.03
2023-05-11T07:12:09.954Z,8.90
2023-05-11T07:14:36.032Z,9.00
2023-05-11T07:17:02.286Z,9.23
2023-05-11T07:19:28.630Z,8.60
2023-05-11T07:21:54.791Z,8.47
2023-05-11T07:24:20.847Z,7.43
2023-05-11T07:26:48.428Z,8.50
2023-05-11T07:29:14.498Z,7.70
2023-05-11T07:31:40.690Z,7.70
2023-05-11T07:34:06.762Z,8.13
2023-05-11T07:36:32.839Z,7.37
2023-05-11T07:39:00.563Z,8.50
2023-05-11T07:41:27.259Z,8.43
2023-05-11T07:43:53.957Z,8.70
2023-05-11T07:46:20.108Z,7.80
2023-05-11T07:48:46.457Z,8.60
2023-05-11T07:51:12.529Z,8.57
2023-05-11T07:53:38.748Z,7.73
2023-05-11T07:56:05.386Z,8.03
2023-05-11T07:58:31.995Z,7.53
2023-05-11T08:00:58.342Z,9.10
2023-05-11T08:03:24.460Z,7.63
2023-05-11T08:05:50.656Z,7.23
2023-05-11T08:08:16.743Z,6.80
2023-05-11T08:10:42.895Z,7.17
2023-05-11T08:13:08.997Z,6.77
2023-05-11T08:15:35.087Z,7.47
2023-05-11T08:18:02.198Z,6.50
2023-05-11T08:20:28.727Z,6.80
2023-05-11T08:22:54.839Z,7.77
2023-05-11T08:25:20.910Z,7.53
2023-05-11T08:27:46.982Z,7.50
2023-05-11T08:30:13.560Z,6.93
2023-05-11T08:32:57.222Z,7.30
2023-05-11T08:35:24.592Z,6.77
2023-05-11T08:37:50.745Z,6.83
2023-05-11T08:40:17.088Z,5.43
2023-05-11T08:42:45.691Z,5.60
2023-05-11T08:45:11.957Z,5.83
2023-05-11T08:47:38.062Z,6.70
2023-05-11T08:50:04.559Z,6.97
2023-05-11T08:52:30.690Z,5.77
2023-05-11T08:54:56.896Z,6.70
2023-05-11T08:57:23.402Z,6.43
2023-05-11T08:59:50.946Z,6.00
2023-05-11T09:02:18.961Z,6.70
2023-05-11T09:04:48.337Z,6.93
2023-05-11T09:07:19.168Z,6.40
2023-05-11T09:09:46.565Z,5.97
2023-05-11T09:12:13.383Z,5.27
2023-05-11T09:14:39.742Z,5.40
2023-05-11T09:17:06.206Z,6.40
2023-05-11T09:19:32.450Z,6.77
2023-05-11T09:21:59.468Z,6.17
2023-05-11T09:24:26.140Z,6.60
2023-05-11T09:27:08.450Z,7.60
2023-05-11T09:29:34.816Z,6.00
2023-05-11T09:32:00.886Z,7.00
2023-05-11T09:34:26.974Z,5.60
2023-05-11T09:36:54.870Z,6.20
2023-05-11T09:39:42.254Z,6.20
2023-05-11T09:42:21.331Z,6.03
2023-05-11T09:44:47.925Z,5.80
2023-05-11T09:47:19.311Z,5.23
2023-05-11T09:49:46.884Z,6.50
2023-05-11T09:52:15.003Z,5.57
2023-05-11T09:54:45.791Z,4.93
2023-05-11T09:57:29.090Z,5.10
2023-05-11T09:59:56.297Z,5.33
2023-05-11T10:02:27.407Z,3.87
2023-05-11T10:04:56.299Z,4.87
2023-05-11T10:07:32.982Z,4.70
2023-05-11T10:10:03.982Z,3.90
2023-05-11T10:12:32.702Z,4.40
2023-05-11T10:15:04.184Z,4.17
2023-05-11T10:17:30.832Z,4.57
2023-05-11T10:19:57.577Z,4.33
2023-05-11T10:22:28.418Z,4.80
2023-05-11T10:24:57.024Z,4.43
2023-05-11T10:27:23.547Z,3.70
2023-05-11T10:29:50.314Z,4.27
2023-05-11T10:32:18.043Z,3.87
2023-05-11T10:34:45.977Z,4.30
2023-05-11T10:37:12.801Z,3.20
2023-05-11T10:39:39.839Z,3.80
2023-05-11T10:42:35.528Z,4.33
2023-05-11T10:45:12.153Z,3.90
2023-05-11T10:47:50.433Z,3.90
2023-05-11T10:50:50.764Z,3.87
2023-05-11T10:53:37.960Z,3.57
2023-05-11T10:56:13.255Z,3.97
2023-05-11T10:58:57.458Z,3.87
2023-05-11T11:01:33.278Z,3.63
2023-05-11T11:04:04.597Z,3.47
2023-05-11T11:06:32.780Z,3.33
2023-05-11T11:09:07.487Z,3.60
2023-05-11T11:11:42.697Z,3.87
2023-05-11T11:14:09.760Z,3.23
2023-05-11T11:16:36.713Z,2.80
2023-05-11T11:19:30.393Z,3.23
2023-05-11T11:21:58.963Z,4.27
2023-05-11T11:24:40.043Z,3.40
2023-05-11T11:27:07.764Z,3.37
2023-05-11T11:29:34.983Z,4.07
2023-05-11T11:32:24.359Z,3.43
2023-05-11T11:34:51.234Z,3.43
2023-05-11T11:37:18.202Z,3.07
2023-05-11T11:39:46.361Z,2.50
2023-05-11T11:42:14.484Z,3.10
2023-05-11T11:44:41.649Z,2.50
2023-05-11T11:47:21.297Z,2.90
2023-05-11T11:49:49.181Z,3.00
2023-05-11T11:52:27.557Z,3.17
2023-05-11T11:54:55.459Z,3.40
2023-05-11T11:57:33.323Z,3.50
2023-05-11T12:00:00.509Z,3.50
2023-05-11T12:02:27.611Z,3.20
2023-05-11T12:04:57.015Z,2.80
2023-05-11T12:07:24.856Z,2.50
2023-05-11T12:09:52.154Z,2.60
2023-05-11T12:12:19.771Z,2.53
2023-05-11T12:14:49.999Z,3.40
2023-05-11T12:17:24.499Z,3.60
2023-05-11T12:19:50.738Z,3.27
2023-05-11T12:22:24.601Z,2.87
2023-05-11T12:24:54.429Z,3.60
2023-05-11T12:27:20.569Z,3.50
2023-05-11T12:29:50.751Z,3.80
2023-05-11T12:32:27.602Z,3.80
2023-05-11T12:35:01.184Z,3.07
2023-05-11T12:37:29.018Z,3.40
2023-05-11T12:39:55.709Z,4.10
2023-05-11T12:42:22.278Z,3.80
2023-05-11T12:44:48.849Z,4.50
2023-05-11T12:47:15.464Z,6.60
2023-05-11T12:49:42.463Z,6.13
2023-05-11T12:52:09.972Z,6.53
2023-05-11T12:54:47.631Z,6.70
2023-05-11T12:57:24.375Z,5.60
2023-05-11T13:00:05.741Z,5.90
2023-05-11T13:02:32.389Z,7.60
2023-05-11T13:04:58.584Z,4.90
2023-05-11T13:07:26.900Z,5.03
2023-05-11T13:09:57.529Z,4.37
2023-05-11T13:12:24.993Z,3.67
2023-05-11T13:15:11.757Z,4.33
2023-05-11T13:17:39.473Z,4.70
2023-05-11T13:20:31.993Z,4.40
2023-05-11T13:23:14.905Z,3.90
2023-05-11T13:25:49.724Z,3.17
2023-05-11T13:28:18.117Z,3.80
2023-05-11T13:30:44.993Z,4.20
2023-05-11T13:33:11.612Z,5.10
2023-05-11T13:35:38.853Z,4.72
2023-05-11T13:38:05.087Z,5.20
2023-05-11T13:40:31.197Z,6.00
2023-05-11T13:42:57.366Z,6.00
2023-05-11T13:45:23.903Z,5.70
2023-05-11T13:47:50.075Z,5.90
2023-05-11T13:50:16.333Z,6.70
2023-05-11T13:52:43.080Z,6.37
2023-05-11T13:55:09.219Z,5.63
2023-05-11T13:57:35.571Z,6.20
2023-05-11T14:00:01.664Z,6.40
2023-05-11T14:02:27.877Z,6.20
2023-05-11T14:04:54.137Z,6.87
2023-05-11T14:07:20.301Z,6.63
2023-05-11T14:09:47.917Z,6.13
2023-05-11T14:12:14.005Z,5.87
2023-05-11T14:14:40.052Z,6.20
2023-05-11T14:17:06.168Z,6.97
2023-05-11T14:19:32.296Z,6.67
2023-05-11T14:21:59.395Z,6.67
2023-05-11T14:24:25.861Z,7.50
2023-05-11T14:26:52.144Z,6.90
2023-05-11T14:29:18.256Z,6.03
2023-05-11T14:31:45.693Z,5.53
2023-05-11T14:34:11.863Z,5.60
2023-05-11T14:36:37.977Z,4.70
2023-05-11T14:39:04.078Z,4.10
2023-05-11T14:41:30.316Z,9.07
2023-05-11T14:43:56.412Z,5.07
2023-05-11T14:46:23.420Z,3.50
2023-05-11T14:48:51.951Z,4.40
2023-05-11T14:51:18.008Z,3.83
2023-05-11T14:53:44.241Z,3.20
2023-05-11T14:56:10.596Z,2.90
2023-05-11T14:58:36.908Z,2.70
2023-05-11T15:01:04.182Z,2.97
2023-05-11T15:03:36.566Z,2.27
2023-05-11T15:06:03.453Z,3.17
2023-05-11T15:08:30.931Z,2.90
2023-05-11T15:10:57.426Z,2.47
2023-05-11T15:13:31.143Z,7.70
2023-05-11T15:16:02.606Z,5.23
2023-05-11T15:18:33.169Z,3.10
2023-05-11T15:21:06.773Z,2.50
2023-05-11T15:23:37.760Z,3.13
2023-05-11T15:26:09.236Z,2.30
2023-05-11T15:28:39.255Z,2.47
2023-05-11T15:31:10.097Z,2.13
2023-05-11T15:33:40.284Z,2.10
2023-05-11T15:36:12.936Z,2.33
2023-05-11T15:38:48.127Z,2.53
2023-05-11T15:41:20.596Z,2.43
2023-05-11T15:43:48.818Z,2.50
2023-05-11T15:46:21.884Z,2.60
2023-05-11T15:48:52.743Z,2.77
2023-05-11T15:51:23.550Z,2.30
2023-05-11T15:53:53.901Z,2.37
2023-05-11T15:56:25.679Z,2.40
2023-05-11T15:58:55.015Z,2.70
2023-05-11T16:01:24.966Z,2.90
2023-05-11T16:03:58.104Z,2.50
2023-05-11T16:06:28.804Z,2.47
2023-05-11T16:08:59.036Z,2.10
2023-05-11T16:11:30.185Z,2.53
2023-05-11T16:14:00.296Z,2.47
2023-05-11T16:16:34.832Z,3.13
2023-05-11T16:19:05.526Z,2.40
2023-05-11T16:21:32.385Z,2.60
2023-05-11T16:23:59.203Z,2.13
2023-05-11T16:26:26.069Z,2.33
2023-05-11T16:28:52.170Z,1.37
2023-05-11T16:31:18.304Z,2.17
2023-05-11T16:33:44.422Z,2.00
2023-05-11T16:36:10.768Z,1.50
2023-05-11T16:38:36.923Z,1.67
2023-05-11T16:41:03.049Z,1.83
2023-05-11T16:43:29.143Z,2.03
2023-05-11T16:45:55.422Z,2.00
2023-05-11T16:48:21.505Z,2.80
2023-05-11T16:50:47.677Z,2.20
2023-05-11T16:53:14.370Z,2.00
2023-05-11T16:55:41.080Z,2.40
2023-05-11T16:58:07.243Z,2.27
2023-05-11T17:00:34.411Z,1.93
2023-05-11T17:03:00.719Z,2.17
2023-05-11T17:05:26.835Z,2.17
2023-05-11T17:07:52.893Z,3.23
2023-05-11T17:10:19.184Z,2.63
2023-05-11T17:12:45.926Z,2.57
2023-05-11T17:15:12.067Z,2.47
2023-05-11T17:17:38.662Z,3.57
2023-05-11T17:20:06.940Z,3.57
2023-05-11T17:22:33.718Z,2.70
2023-05-11T17:25:02.948Z,2.70
2023-05-11T17:27:30.222Z,2.80
2023-05-11T17:29:56.954Z,2.13
2023-05-11T17:32:23.364Z,2.20
2023-05-11T17:34:49.847Z,1.90
2023-05-11T17:37:30.442Z,1.67
2023-05-11T17:39:57.900Z,1.90
2023-05-11T17:42:23.959Z,1.73
2023-05-11T17:44:50.027Z,1.80
2023-05-11T17:47:16.163Z,1.53
2023-05-11T17:49:42.275Z,1.80
2023-05-11T17:52:09.273Z,1.77
2023-05-11T17:54:36.181Z,1.43
2023-05-11T17:57:04.346Z,1.87
2023-05-11T17:59:30.501Z,1.80
2023-05-11T18:01:56.766Z,2.30
2023-05-11T18:04:22.912Z,1.97
2023-05-11T18:06:48.986Z,2.13
2023-05-11T18:09:15.120Z,1.60
2023-05-11T18:11:41.784Z,2.03
2023-05-11T18:14:08.333Z,2.60
2023-05-11T18:16:34.606Z,2.20
2023-05-11T18:19:00.805Z,2.23
2023-05-11T18:21:26.937Z,2.60
2023-05-11T18:23:53.661Z,2.37
2023-05-11T18:26:20.910Z,2.40
2023-05-11T18:28:50.028Z,2.47
2023-05-11T18:31:18.239Z,2.30
2023-05-11T18:33:44.371Z,2.40
2023-05-11T18:36:11.342Z,2.47
2023-05-11T18:38:37.530Z,2.23
2023-05-11T18:41:04.874Z,2.07
2023-05-11T18:43:31.353Z,2.00
2023-05-11T18:45:57.426Z,2.17
2023-05-11T18:48:23.495Z,2.20
2023-05-11T18:50:55.904Z,2.40
2023-05-11T18:53:22.347Z,2.60
2023-05-11T18:55:53.187Z,2.40
2023-05-11T18:58:20.209Z,2.73
2023-05-11T19:00:47.796Z,3.20
2023-05-11T19:03:14.318Z,2.77
2023-05-11T19:05:42.188Z,2.90
2023-05-11T19:08:08.697Z,2.37
2023-05-11T19:10:37.218Z,3.00
2023-05-11T19:13:04.107Z,3.10
2023-05-11T19:15:32.211Z,3.00
2023-05-11T19:17:58.597Z,3.57
2023-05-11T19:20:24.745Z,3.30
2023-05-11T19:22:50.805Z,3.90
2023-05-11T19:25:17.018Z,3.67
2023-05-11T19:27:44.747Z,3.73
2023-05-11T19:30:11.400Z,4.30
2023-05-11T19:32:37.733Z,5.13
2023-05-11T19:35:04.990Z,5.37
2023-05-11T19:37:31.181Z,4.60
2023-05-11T19:40:08.462Z,4.33
2023-05-11T19:42:43.492Z,4.67
2023-05-11T19:45:10.789Z,4.70
2023-05-11T19:47:38.389Z,4.70
2023-05-11T19:50:07.770Z,4.37
2023-05-11T19:52:36.937Z,4.27
2023-05-11T19:55:03.883Z,4.20
2023-05-11T19:57:31.525Z,5.00
2023-05-11T19:59:57.622Z,4.77
2023-05-11T20:02:23.799Z,4.63
2023-05-11T20:04:49.855Z,5.33
2023-05-11T20:07:15.923Z,5.63
2023-05-11T20:09:41.986Z,5.70
2023-05-11T20:12:09.031Z,6.57
2023-05-11T20:14:40.051Z,4.83
2023-05-11T20:17:09.329Z,4.60
2023-05-11T20:19:35.920Z,4.90
2023-05-11T20:22:02.633Z,5.50
2023-05-11T20:24:28.764Z,4.83
2023-05-11T20:26:54.819Z,7.43
2023-05-11T20:29:20.920Z,7.37
2023-05-11T20:31:47.097Z,4.63
2023-05-11T20:34:13.374Z,4.90
2023-05-11T20:36:39.569Z,4.90
2023-05-11T20:39:06.580Z,5.40
2023-05-11T20:41:32.808Z,5.70
2023-05-11T20:43:58.946Z,5.53
2023-05-11T20:46:25.226Z,4.30
2023-05-11T20:48:52.168Z,4.60
2023-05-11T20:51:22.479Z,5.63
2023-05-11T20:53:49.529Z,5.30
2023-05-11T20:56:15.580Z,5.77
2023-05-11T20:58:41.775Z,5.43
2023-05-11T21:01:07.964Z,5.60
2023-05-11T21:03:34.094Z,6.70
2023-05-11T21:06:00.189Z,6.60
2023-05-11T21:08:26.290Z,6.70
2023-05-11T21:10:52.545Z,7.53
2023-05-11T21:13:18.645Z,6.70
2023-05-11T21:15:44.760Z,6.07
2023-05-11T21:18:11.130Z,6.70
2023-05-11T21:20:37.289Z,8.40
2023-05-11T21:23:03.448Z,6.50
2023-05-11T21:25:29.590Z,8.10
2023-05-11T21:27:55.860Z,6.23
2023-05-11T21:30:21.977Z,6.60
2023-05-11T21:32:49.758Z,6.17
2023-05-11T21:35:16.100Z,6.70
2023-05-11T21:37:44.558Z,6.60
2023-05-11T21:40:11.444Z,7.67
2023-05-11T21:42:37.856Z,6.80
2023-05-11T21:45:04.478Z,7.97
2023-05-11T21:47:30.738Z,7.50
2023-05-11T21:49:59.888Z,7.00
2023-05-11T21:52:26.082Z,6.77
2023-05-11T21:54:52.288Z,6.13
2023-05-11T21:57:18.348Z,6.23
2023-05-11T21:59:44.405Z,7.90
2023-05-11T22:02:10.577Z,6.83
2023-05-11T22:04:36.811Z,6.53
2023-05-11T22:07:03.338Z,7.87
2023-05-11T22:09:30.737Z,7.80
2023-05-11T22:11:57.495Z,6.63
2023-05-11T22:14:23.613Z,7.40
2023-05-11T22:16:49.776Z,7.27
2023-05-11T22:19:15.893Z,7.33
2023-05-11T22:21:41.991Z,6.37
2023-05-11T22:24:08.260Z,6.60
2023-05-11T22:26:34.365Z,6.97
2023-05-11T22:29:00.412Z,7.43
2023-05-11T22:31:26.617Z,6.97
2023-05-11T22:33:52.737Z,6.60
2023-05-11T22:36:18.795Z,6.60
2023-05-11T22:38:44.834Z,6.67
2023-05-11T22:41:10.926Z,6.27
2023-05-11T22:43:37.047Z,6.43
2023-05-11T22:46:04.241Z,6.57
2023-05-11T22:48:30.306Z,6.07
2023-05-11T22:50:56.326Z,4.93
2023-05-11T22:53:22.551Z,3.27
2023-05-11T22:55:48.632Z,3.73
2023-05-11T22:58:14.772Z,3.10
2023-05-11T23:00:40.838Z,2.73
2023-05-11T23:03:07.474Z,2.40
2023-05-11T23:05:33.671Z,2.13
2023-05-11T23:08:00.012Z,2.03
2023-05-11T23:10:26.730Z,1.83
2023-05-11T23:12:52.791Z,2.27
2023-05-11T23:15:18.840Z,2.10
2023-05-11T23:17:44.998Z,2.87
2023-05-11T23:20:11.757Z,3.93
2023-05-11T23:22:37.859Z,2.90
2023-05-11T23:25:19.706Z,2.90
2023-05-11T23:27:45.790Z,3.40
2023-05-11T23:30:12.095Z,3.20
2023-05-11T23:32:38.212Z,2.80
2023-05-11T23:35:04.714Z,3.30
2023-05-11T23:37:30.766Z,3.33
2023-05-11T23:39:56.871Z,3.77
2023-05-11T23:42:22.991Z,3.20
2023-05-11T23:44:49.154Z,4.00
2023-05-11T23:47:15.230Z,4.20
2023-05-11T23:49:41.325Z,4.00
2023-05-11T23:52:07.397Z,4.37
2023-05-11T23:54:33.479Z,4.47
2023-05-11T23:56:59.610Z,4.20
2023-05-11T23:59:25.713Z,4.87
